sensor_id;sensor_type;location;lat;lon;timestamp;P1;durP1;ratioP1;P2;durP2;ratioP2
9852;SDS011;4965;43.238;27.864;2022-11-20T00:01:15;17.42;;;4.78;;
9852;SDS011;4965;43.238;27.864;2022-11-20T00:03:43;15.18;;;5.40;;
9852;SDS011;4965;43.238;27.864;2022-11-20T00:06:12;19.08;;;5.10;;
9852;SDS011;4965;43.238;27.864;2022-11-20T00:08:41;22.58;;;5.00;;
9852;SDS011;4965;43.238;27.864;2022-11-20T00:11:09;20.52;;;5.05;;
9852;SDS011;4965;43.238;27.864;2022-11-20T00:13:37;18.15;;;4.60;;
9852;SDS011;4965;43.238;27.864;2022-11-20T00:16:05;22.60;;;4.93;;
9852;SDS011;4965;43.238;27.864;2022-11-20T00:18:33;19.48;;;5.38;;
9852;SDS011;4965;43.238;27.864;2022-11-20T00:21:01;23.08;;;4.60;;
9852;SDS011;4965;43.238;27.864;2022-11-20T00:23:30;22.17;;;4.95;;
9852;SDS011;4965;43.238;27.864;2022-11-20T00:26:00;15.05;;;5.47;;
9852;SDS011;4965;43.238;27.864;2022-11-20T00:28:27;15.57;;;5.35;;
9852;SDS011;4965;43.238;27.864;2022-11-20T00:30:59;14.48;;;4.85;;
9852;SDS011;4965;43.238;27.864;2022-11-20T00:33:27;21.20;;;4.85;;
9852;SDS011;4965;43.238;27.864;2022-11-20T00:35:58;12.82;;;4.95;;
9852;SDS011;4965;43.238;27.864;2022-11-20T00:38:25;20.42;;;5.13;;
9852;SDS011;4965;43.238;27.864;2022-11-20T00:40:55;24.35;;;5.63;;
9852;SDS011;4965;43.238;27.864;2022-11-20T00:43:23;15.98;;;5.28;;
9852;SDS011;4965;43.238;27.864;2022-11-20T00:45:50;17.58;;;4.97;;
9852;SDS011;4965;43.238;27.864;2022-11-20T00:48:17;20.55;;;5.50;;
9852;SDS011;4965;43.238;27.864;2022-11-20T00:50:43;14.43;;;4.95;;
9852;SDS011;4965;43.238;27.864;2022-11-20T00:53:10;17.30;;;5.20;;
9852;SDS011;4965;43.238;27.864;2022-11-20T00:55:37;17.92;;;5.35;;
9852;SDS011;4965;43.238;27.864;2022-11-20T00:58:05;23.90;;;5.55;;
9852;SDS011;4965;43.238;27.864;2022-11-20T01:00:32;14.02;;;6.03;;
9852;SDS011;4965;43.238;27.864;2022-11-20T01:02:59;17.38;;;5.43;;
9852;SDS011;4965;43.238;27.864;2022-11-20T01:05:26;20.63;;;5.50;;
9852;SDS011;4965;43.238;27.864;2022-11-20T01:07:52;15.07;;;5.18;;
9852;SDS011;4965;43.238;27.864;2022-11-20T01:10:19;23.65;;;5.78;;
9852;SDS011;4965;43.238;27.864;2022-11-20T01:12:46;21.45;;;5.80;;
9852;SDS011;4965;43.238;27.864;2022-11-20T01:15:35;13.35;;;4.90;;
9852;SDS011;4965;43.238;27.864;2022-11-20T01:18:02;16.88;;;4.97;;
9852;SDS011;4965;43.238;27.864;2022-11-20T01:20:29;18.50;;;5.13;;
9852;SDS011;4965;43.238;27.864;2022-11-20T01:22:55;18.30;;;5.00;;
9852;SDS011;4965;43.238;27.864;2022-11-20T01:25:22;19.33;;;5.03;;
9852;SDS011;4965;43.238;27.864;2022-11-20T01:27:49;16.05;;;4.68;;
9852;SDS011;4965;43.238;27.864;2022-11-20T01:30:16;19.85;;;5.25;;
9852;SDS011;4965;43.238;27.864;2022-11-20T01:32:44;18.42;;;5.07;;
9852;SDS011;4965;43.238;27.864;2022-11-20T01:35:11;16.70;;;5.28;;
9852;SDS011;4965;43.238;27.864;2022-11-20T01:37:38;13.10;;;4.93;;
9852;SDS011;4965;43.238;27.864;2022-11-20T01:40:05;19.27;;;5.50;;
9852;SDS011;4965;43.238;27.864;2022-11-20T01:42:32;18.80;;;5.32;;
9852;SDS011;4965;43.238;27.864;2022-11-20T01:48:26;13.23;;;4.45;;
9852;SDS011;4965;43.238;27.864;2022-11-20T01:50:56;15.45;;;5.22;;
9852;SDS011;4965;43.238;27.864;2022-11-20T01:53:25;14.05;;;4.50;;
9852;SDS011;4965;43.238;27.864;2022-11-20T01:55:56;23.55;;;5.30;;
9852;SDS011;4965;43.238;27.864;2022-11-20T01:58:28;17.75;;;4.95;;
9852;SDS011;4965;43.238;27.864;2022-11-20T02:00:58;16.35;;;5.35;;
9852;SDS011;4965;43.238;27.864;2022-11-20T02:03:27;15.25;;;5.22;;
9852;SDS011;4965;43.238;27.864;2022-11-20T02:05:55;14.13;;;4.88;;
9852;SDS011;4965;43.238;27.864;2022-11-20T02:08:28;16.15;;;4.50;;
9852;SDS011;4965;43.238;27.864;2022-11-20T02:10:55;13.90;;;5.10;;
9852;SDS011;4965;43.238;27.864;2022-11-20T02:13:22;18.63;;;5.43;;
9852;SDS011;4965;43.238;27.864;2022-11-20T02:16:08;18.00;;;4.95;;
9852;SDS011;4965;43.238;27.864;2022-11-20T02:18:37;17.25;;;5.03;;
9852;SDS011;4965;43.238;27.864;2022-11-20T02:21:06;20.48;;;5.45;;
9852;SDS011;4965;43.238;27.864;2022-11-20T02:23:36;15.25;;;5.03;;
9852;SDS011;4965;43.238;27.864;2022-11-20T02:26:11;19.63;;;5.68;;
9852;SDS011;4965;43.238;27.864;2022-11-20T02:28:41;20.58;;;5.45;;
9852;SDS011;4965;43.238;27.864;2022-11-20T02:31:08;19.55;;;4.70;;
9852;SDS011;4965;43.238;27.864;2022-11-20T02:33:35;15.75;;;4.97;;
9852;SDS011;4965;43.238;27.864;2022-11-20T02:36:01;14.45;;;5.18;;
9852;SDS011;4965;43.238;27.864;2022-11-20T02:38:29;18.77;;;4.88;;
9852;SDS011;4965;43.238;27.864;2022-11-20T02:40:55;15.27;;;5.47;;
9852;SDS011;4965;43.238;27.864;2022-11-20T02:43:24;16.73;;;5.53;;
9852;SDS011;4965;43.238;27.864;2022-11-20T02:45:50;19.20;;;5.57;;
9852;SDS011;4965;43.238;27.864;2022-11-20T02:48:17;17.00;;;4.78;;
9852;SDS011;4965;43.238;27.864;2022-11-20T02:50:44;16.88;;;4.93;;
9852;SDS011;4965;43.238;27.864;2022-11-20T02:53:11;21.00;;;5.28;;
9852;SDS011;4965;43.238;27.864;2022-11-20T02:55:37;14.57;;;5.03;;
9852;SDS011;4965;43.238;27.864;2022-11-20T02:58:04;15.50;;;4.93;;
9852;SDS011;4965;43.238;27.864;2022-11-20T03:00:32;13.23;;;4.75;;
9852;SDS011;4965;43.238;27.864;2022-11-20T03:03:00;11.45;;;4.22;;
9852;SDS011;4965;43.238;27.864;2022-11-20T03:05:27;21.30;;;5.43;;
9852;SDS011;4965;43.238;27.864;2022-11-20T03:07:54;15.35;;;4.75;;
9852;SDS011;4965;43.238;27.864;2022-11-20T03:10:21;16.67;;;5.30;;
9852;SDS011;4965;43.238;27.864;2022-11-20T03:12:52;10.27;;;4.55;;
9852;SDS011;4965;43.238;27.864;2022-11-20T03:15:19;12.13;;;4.60;;
9852;SDS011;4965;43.238;27.864;2022-11-20T03:17:47;21.20;;;4.90;;
9852;SDS011;4965;43.238;27.864;2022-11-20T03:20:14;16.52;;;5.43;;
9852;SDS011;4965;43.238;27.864;2022-11-20T03:22:41;14.43;;;5.20;;
9852;SDS011;4965;43.238;27.864;2022-11-20T03:25:08;14.90;;;6.22;;
9852;SDS011;4965;43.238;27.864;2022-11-20T03:27:35;19.55;;;8.70;;
9852;SDS011;4965;43.238;27.864;2022-11-20T03:30:02;19.20;;;6.18;;
9852;SDS011;4965;43.238;27.864;2022-11-20T03:32:30;14.63;;;5.65;;
9852;SDS011;4965;43.238;27.864;2022-11-20T03:34:58;16.33;;;4.95;;
9852;SDS011;4965;43.238;27.864;2022-11-20T03:37:25;18.42;;;5.57;;
9852;SDS011;4965;43.238;27.864;2022-11-20T03:39:52;19.48;;;4.93;;
9852;SDS011;4965;43.238;27.864;2022-11-20T03:42:19;21.77;;;5.30;;
9852;SDS011;4965;43.238;27.864;2022-11-20T03:45:03;11.15;;;4.55;;
9852;SDS011;4965;43.238;27.864;2022-11-20T03:47:30;17.65;;;4.82;;
9852;SDS011;4965;43.238;27.864;2022-11-20T03:49:58;14.10;;;4.38;;
9852;SDS011;4965;43.238;27.864;2022-11-20T03:52:25;14.27;;;4.45;;
9852;SDS011;4965;43.238;27.864;2022-11-20T03:54:52;12.43;;;4.72;;
9852;SDS011;4965;43.238;27.864;2022-11-20T03:57:19;13.05;;;4.93;;
9852;SDS011;4965;43.238;27.864;2022-11-20T03:59:46;18.35;;;4.45;;
9852;SDS011;4965;43.238;27.864;2022-11-20T04:02:12;15.63;;;4.85;;
9852;SDS011;4965;43.238;27.864;2022-11-20T04:04:39;14.45;;;4.38;;
9852;SDS011;4965;43.238;27.864;2022-11-20T04:07:08;16.42;;;5.05;;
9852;SDS011;4965;43.238;27.864;2022-11-20T04:09:34;16.13;;;4.80;;
9852;SDS011;4965;43.238;27.864;2022-11-20T04:12:01;19.88;;;4.78;;
9852;SDS011;4965;43.238;27.864;2022-11-20T04:14:28;14.82;;;4.82;;
9852;SDS011;4965;43.238;27.864;2022-11-20T04:16:55;23.58;;;4.35;;
9852;SDS011;4965;43.238;27.864;2022-11-20T04:19:22;20.27;;;4.90;;
9852;SDS011;4965;43.238;27.864;2022-11-20T04:21:49;9.85;;;3.85;;
9852;SDS011;4965;43.238;27.864;2022-11-20T04:24:17;16.85;;;4.88;;
9852;SDS011;4965;43.238;27.864;2022-11-20T04:26:43;20.83;;;4.50;;
9852;SDS011;4965;43.238;27.864;2022-11-20T04:29:11;14.70;;;4.10;;
9852;SDS011;4965;43.238;27.864;2022-11-20T04:31:38;14.95;;;4.38;;
9852;SDS011;4965;43.238;27.864;2022-11-20T04:34:06;15.43;;;4.32;;
9852;SDS011;4965;43.238;27.864;2022-11-20T04:36:33;16.83;;;4.03;;
9852;SDS011;4965;43.238;27.864;2022-11-20T04:39:00;12.23;;;3.67;;
9852;SDS011;4965;43.238;27.864;2022-11-20T04:41:30;13.98;;;3.88;;
9852;SDS011;4965;43.238;27.864;2022-11-20T04:43:59;21.60;;;4.90;;
9852;SDS011;4965;43.238;27.864;2022-11-20T04:46:29;16.60;;;4.32;;
9852;SDS011;4965;43.238;27.864;2022-11-20T04:48:57;16.02;;;3.85;;
9852;SDS011;4965;43.238;27.864;2022-11-20T04:51:24;13.30;;;4.13;;
9852;SDS011;4965;43.238;27.864;2022-11-20T04:53:51;16.50;;;4.15;;
9852;SDS011;4965;43.238;27.864;2022-11-20T04:56:18;21.77;;;4.55;;
9852;SDS011;4965;43.238;27.864;2022-11-20T04:58:46;9.90;;;4.20;;
9852;SDS011;4965;43.238;27.864;2022-11-20T05:01:13;20.73;;;4.20;;
9852;SDS011;4965;43.238;27.864;2022-11-20T05:03:42;10.88;;;4.20;;
9852;SDS011;4965;43.238;27.864;2022-11-20T05:06:10;15.45;;;3.85;;
9852;SDS011;4965;43.238;27.864;2022-11-20T05:08:39;10.98;;;3.17;;
9852;SDS011;4965;43.238;27.864;2022-11-20T05:11:06;13.75;;;4.50;;
9852;SDS011;4965;43.238;27.864;2022-11-20T05:13:35;11.30;;;3.63;;
9852;SDS011;4965;43.238;27.864;2022-11-20T05:16:04;19.55;;;4.00;;
9852;SDS011;4965;43.238;27.864;2022-11-20T05:18:33;17.77;;;4.35;;
9852;SDS011;4965;43.238;27.864;2022-11-20T05:21:00;16.08;;;4.45;;
9852;SDS011;4965;43.238;27.864;2022-11-20T05:23:27;17.00;;;4.22;;
9852;SDS011;4965;43.238;27.864;2022-11-20T05:25:56;15.82;;;4.00;;
9852;SDS011;4965;43.238;27.864;2022-11-20T05:28:24;10.93;;;3.65;;
9852;SDS011;4965;43.238;27.864;2022-11-20T05:30:51;14.65;;;4.38;;
9852;SDS011;4965;43.238;27.864;2022-11-20T05:33:20;11.25;;;4.88;;
9852;SDS011;4965;43.238;27.864;2022-11-20T05:35:47;23.15;;;4.13;;
9852;SDS011;4965;43.238;27.864;2022-11-20T05:38:14;14.35;;;4.45;;
9852;SDS011;4965;43.238;27.864;2022-11-20T05:40:41;14.05;;;3.97;;
9852;SDS011;4965;43.238;27.864;2022-11-20T05:43:08;15.55;;;4.50;;
9852;SDS011;4965;43.238;27.864;2022-11-20T05:45:34;21.33;;;4.65;;
9852;SDS011;4965;43.238;27.864;2022-11-20T05:48:01;22.55;;;4.78;;
9852;SDS011;4965;43.238;27.864;2022-11-20T05:50:30;15.88;;;4.95;;
9852;SDS011;4965;43.238;27.864;2022-11-20T05:52:57;14.52;;;4.45;;
9852;SDS011;4965;43.238;27.864;2022-11-20T05:55:24;13.95;;;3.85;;
9852;SDS011;4965;43.238;27.864;2022-11-20T05:57:51;18.98;;;4.55;;
9852;SDS011;4965;43.238;27.864;2022-11-20T06:00:19;14.15;;;4.00;;
9852;SDS011;4965;43.238;27.864;2022-11-20T06:02:46;14.15;;;4.35;;
9852;SDS011;4965;43.238;27.864;2022-11-20T06:05:12;12.75;;;4.18;;
9852;SDS011;4965;43.238;27.864;2022-11-20T06:07:41;17.17;;;3.90;;
9852;SDS011;4965;43.238;27.864;2022-11-20T06:10:08;19.02;;;4.10;;
9852;SDS011;4965;43.238;27.864;2022-11-20T06:12:35;18.05;;;4.80;;
9852;SDS011;4965;43.238;27.864;2022-11-20T06:15:02;19.73;;;4.55;;
9852;SDS011;4965;43.238;27.864;2022-11-20T06:17:29;20.08;;;4.53;;
9852;SDS011;4965;43.238;27.864;2022-11-20T06:19:56;14.95;;;4.38;;
9852;SDS011;4965;43.238;27.864;2022-11-20T06:22:23;15.63;;;4.40;;
9852;SDS011;4965;43.238;27.864;2022-11-20T06:24:51;11.95;;;4.18;;
9852;SDS011;4965;43.238;27.864;2022-11-20T06:27:18;17.10;;;4.38;;
9852;SDS011;4965;43.238;27.864;2022-11-20T06:29:44;13.18;;;4.95;;
9852;SDS011;4965;43.238;27.864;2022-11-20T06:32:11;15.95;;;3.95;;
9852;SDS011;4965;43.238;27.864;2022-11-20T06:34:38;16.73;;;4.47;;
9852;SDS011;4965;43.238;27.864;2022-11-20T06:37:05;16.55;;;4.45;;
9852;SDS011;4965;43.238;27.864;2022-11-20T06:39:32;19.75;;;4.43;;
9852;SDS011;4965;43.238;27.864;2022-11-20T06:42:00;18.33;;;3.88;;
9852;SDS011;4965;43.238;27.864;2022-11-20T06:44:26;16.73;;;4.45;;
9852;SDS011;4965;43.238;27.864;2022-11-20T06:46:53;17.17;;;3.78;;
9852;SDS011;4965;43.238;27.864;2022-11-20T06:49:20;16.85;;;4.47;;
9852;SDS011;4965;43.238;27.864;2022-11-20T06:51:47;16.48;;;4.38;;
9852;SDS011;4965;43.238;27.864;2022-11-20T06:54:14;15.38;;;4.75;;
9852;SDS011;4965;43.238;27.864;2022-11-20T06:56:40;14.57;;;4.25;;
9852;SDS011;4965;43.238;27.864;2022-11-20T06:59:09;18.33;;;6.13;;
9852;SDS011;4965;43.238;27.864;2022-11-20T07:01:35;12.43;;;3.47;;
9852;SDS011;4965;43.238;27.864;2022-11-20T07:04:02;18.38;;;4.57;;
9852;SDS011;4965;43.238;27.864;2022-11-20T07:06:29;12.73;;;3.92;;
9852;SDS011;4965;43.238;27.864;2022-11-20T07:08:57;17.67;;;3.80;;
9852;SDS011;4965;43.238;27.864;2022-11-20T07:11:24;18.10;;;3.85;;
9852;SDS011;4965;43.238;27.864;2022-11-20T07:13:51;17.27;;;4.45;;
9852;SDS011;4965;43.238;27.864;2022-11-20T07:16:19;18.15;;;4.28;;
9852;SDS011;4965;43.238;27.864;2022-11-20T07:18:46;13.52;;;4.32;;
9852;SDS011;4965;43.238;27.864;2022-11-20T07:21:13;15.20;;;4.38;;
9852;SDS011;4965;43.238;27.864;2022-11-20T07:23:40;14.55;;;4.82;;
9852;SDS011;4965;43.238;27.864;2022-11-20T07:26:07;19.55;;;4.60;;
9852;SDS011;4965;43.238;27.864;2022-11-20T07:28:35;13.98;;;4.40;;
9852;SDS011;4965;43.238;27.864;2022-11-20T07:31:03;23.20;;;4.55;;
9852;SDS011;4965;43.238;27.864;2022-11-20T07:33:33;21.83;;;4.32;;
9852;SDS011;4965;43.238;27.864;2022-11-20T07:36:00;14.40;;;3.63;;
9852;SDS011;4965;43.238;27.864;2022-11-20T07:38:27;28.08;;;4.90;;
9852;SDS011;4965;43.238;27.864;2022-11-20T07:40:54;24.45;;;5.03;;
9852;SDS011;4965;43.238;27.864;2022-11-20T07:43:22;22.90;;;4.38;;
9852;SDS011;4965;43.238;27.864;2022-11-20T07:45:50;22.67;;;4.10;;
9852;SDS011;4965;43.238;27.864;2022-11-20T07:48:17;14.93;;;4.20;;
9852;SDS011;4965;43.238;27.864;2022-11-20T07:50:45;18.20;;;3.90;;
9852;SDS011;4965;43.238;27.864;2022-11-20T07:53:12;21.02;;;4.70;;
9852;SDS011;4965;43.238;27.864;2022-11-20T07:55:39;16.35;;;3.95;;
9852;SDS011;4965;43.238;27.864;2022-11-20T07:58:05;21.38;;;4.40;;
9852;SDS011;4965;43.238;27.864;2022-11-20T08:00:32;17.60;;;5.13;;
9852;SDS011;4965;43.238;27.864;2022-11-20T08:02:59;11.68;;;3.95;;
9852;SDS011;4965;43.238;27.864;2022-11-20T08:05:29;21.65;;;4.97;;
9852;SDS011;4965;43.238;27.864;2022-11-20T08:07:57;22.25;;;4.40;;
9852;SDS011;4965;43.238;27.864;2022-11-20T08:10:24;20.52;;;5.15;;
9852;SDS011;4965;43.238;27.864;2022-11-20T08:12:53;14.57;;;4.25;;
9852;SDS011;4965;43.238;27.864;2022-11-20T08:15:39;22.80;;;5.18;;
9852;SDS011;4965;43.238;27.864;2022-11-20T08:18:07;26.17;;;5.88;;
9852;SDS011;4965;43.238;27.864;2022-11-20T08:20:35;26.05;;;5.63;;
9852;SDS011;4965;43.238;27.864;2022-11-20T08:23:04;18.17;;;5.70;;
9852;SDS011;4965;43.238;27.864;2022-11-20T08:25:32;19.95;;;5.38;;
9852;SDS011;4965;43.238;27.864;2022-11-20T08:28:00;18.80;;;4.65;;
9852;SDS011;4965;43.238;27.864;2022-11-20T08:30:29;22.00;;;5.20;;
9852;SDS011;4965;43.238;27.864;2022-11-20T08:33:00;25.05;;;5.65;;
9852;SDS011;4965;43.238;27.864;2022-11-20T08:35:27;15.98;;;5.10;;
9852;SDS011;4965;43.238;27.864;2022-11-20T08:37:54;16.05;;;5.40;;
9852;SDS011;4965;43.238;27.864;2022-11-20T08:40:22;19.92;;;6.18;;
9852;SDS011;4965;43.238;27.864;2022-11-20T08:42:50;18.48;;;5.07;;
9852;SDS011;4965;43.238;27.864;2022-11-20T08:45:17;15.55;;;4.78;;
9852;SDS011;4965;43.238;27.864;2022-11-20T08:47:45;16.23;;;5.07;;
9852;SDS011;4965;43.238;27.864;2022-11-20T08:50:13;13.35;;;4.97;;
9852;SDS011;4965;43.238;27.864;2022-11-20T08:52:41;21.85;;;5.43;;
9852;SDS011;4965;43.238;27.864;2022-11-20T08:55:08;18.58;;;6.45;;
9852;SDS011;4965;43.238;27.864;2022-11-20T08:57:37;21.13;;;5.18;;
9852;SDS011;4965;43.238;27.864;2022-11-20T09:00:05;16.33;;;5.32;;
9852;SDS011;4965;43.238;27.864;2022-11-20T09:02:33;23.58;;;5.32;;
9852;SDS011;4965;43.238;27.864;2022-11-20T09:05:00;22.05;;;6.30;;
9852;SDS011;4965;43.238;27.864;2022-11-20T09:07:28;22.23;;;5.43;;
9852;SDS011;4965;43.238;27.864;2022-11-20T09:09:55;20.25;;;5.05;;
9852;SDS011;4965;43.238;27.864;2022-11-20T09:12:22;28.83;;;5.78;;
9852;SDS011;4965;43.238;27.864;2022-11-20T09:14:51;13.57;;;3.97;;
9852;SDS011;4965;43.238;27.864;2022-11-20T09:17:17;20.70;;;5.43;;
9852;SDS011;4965;43.238;27.864;2022-11-20T09:19:45;27.92;;;6.15;;
9852;SDS011;4965;43.238;27.864;2022-11-20T09:22:12;19.63;;;5.10;;
9852;SDS011;4965;43.238;27.864;2022-11-20T09:24:39;17.55;;;5.45;;
9852;SDS011;4965;43.238;27.864;2022-11-20T09:27:06;21.95;;;4.70;;
9852;SDS011;4965;43.238;27.864;2022-11-20T09:29:32;17.48;;;4.30;;
9852;SDS011;4965;43.238;27.864;2022-11-20T09:32:01;17.30;;;5.00;;
9852;SDS011;4965;43.238;27.864;2022-11-20T09:34:28;21.85;;;5.50;;
9852;SDS011;4965;43.238;27.864;2022-11-20T09:36:55;20.05;;;4.60;;
9852;SDS011;4965;43.238;27.864;2022-11-20T09:39:24;19.02;;;5.10;;
9852;SDS011;4965;43.238;27.864;2022-11-20T09:45:10;16.00;;;4.15;;
9852;SDS011;4965;43.238;27.864;2022-11-20T09:47:53;16.98;;;5.10;;
9852;SDS011;4965;43.238;27.864;2022-11-20T09:50:30;16.92;;;4.43;;
9852;SDS011;4965;43.238;27.864;2022-11-20T09:53:10;16.88;;;4.70;;
9852;SDS011;4965;43.238;27.864;2022-11-20T09:55:39;21.38;;;6.00;;
9852;SDS011;4965;43.238;27.864;2022-11-20T09:58:06;21.40;;;6.63;;
9852;SDS011;4965;43.238;27.864;2022-11-20T10:00:39;21.08;;;5.63;;
9852;SDS011;4965;43.238;27.864;2022-11-20T10:03:11;24.52;;;5.63;;
9852;SDS011;4965;43.238;27.864;2022-11-20T10:05:44;22.45;;;5.13;;
9852;SDS011;4965;43.238;27.864;2022-11-20T10:08:15;20.60;;;5.65;;
9852;SDS011;4965;43.238;27.864;2022-11-20T10:10:46;19.83;;;5.20;;
9852;SDS011;4965;43.238;27.864;2022-11-20T10:13:28;14.55;;;5.13;;
9852;SDS011;4965;43.238;27.864;2022-11-20T10:16:11;25.25;;;5.40;;
9852;SDS011;4965;43.238;27.864;2022-11-20T10:18:53;15.93;;;5.47;;
9852;SDS011;4965;43.238;27.864;2022-11-20T10:21:34;21.58;;;5.38;;
9852;SDS011;4965;43.238;27.864;2022-11-20T10:24:19;22.67;;;5.57;;
9852;SDS011;4965;43.238;27.864;2022-11-20T10:26:56;21.95;;;4.97;;
9852;SDS011;4965;43.238;27.864;2022-11-20T10:29:32;20.88;;;6.13;;
9852;SDS011;4965;43.238;27.864;2022-11-20T10:32:01;25.25;;;5.65;;
9852;SDS011;4965;43.238;27.864;2022-11-20T10:34:33;20.70;;;5.70;;
9852;SDS011;4965;43.238;27.864;2022-11-20T10:37:15;21.00;;;4.47;;
9852;SDS011;4965;43.238;27.864;2022-11-20T10:39:47;24.52;;;5.13;;
9852;SDS011;4965;43.238;27.864;2022-11-20T10:42:19;20.88;;;5.55;;
9852;SDS011;4965;43.238;27.864;2022-11-20T10:44:51;13.32;;;4.50;;
9852;SDS011;4965;43.238;27.864;2022-11-20T10:47:27;26.02;;;5.20;;
9852;SDS011;4965;43.238;27.864;2022-11-20T10:49:58;23.80;;;4.45;;
9852;SDS011;4965;43.238;27.864;2022-11-20T10:52:32;14.57;;;4.18;;
9852;SDS011;4965;43.238;27.864;2022-11-20T10:55:06;23.63;;;4.85;;
9852;SDS011;4965;43.238;27.864;2022-11-20T10:57:48;15.05;;;4.43;;
9852;SDS011;4965;43.238;27.864;2022-11-20T11:00:21;23.08;;;4.60;;
9852;SDS011;4965;43.238;27.864;2022-11-20T11:02:48;14.35;;;4.45;;
9852;SDS011;4965;43.238;27.864;2022-11-20T11:05:20;21.80;;;5.53;;
9852;SDS011;4965;43.238;27.864;2022-11-20T11:07:55;24.88;;;5.43;;
9852;SDS011;4965;43.238;27.864;2022-11-20T11:10:24;24.17;;;5.55;;
9852;SDS011;4965;43.238;27.864;2022-11-20T11:12:57;19.60;;;4.32;;
9852;SDS011;4965;43.238;27.864;2022-11-20T11:15:25;26.92;;;5.18;;
9852;SDS011;4965;43.238;27.864;2022-11-20T11:17:56;23.65;;;5.25;;
9852;SDS011;4965;43.238;27.864;2022-11-20T11:20:25;13.88;;;4.25;;
9852;SDS011;4965;43.238;27.864;2022-11-20T11:22:53;18.00;;;4.85;;
9852;SDS011;4965;43.238;27.864;2022-11-20T11:25:23;20.48;;;4.70;;
9852;SDS011;4965;43.238;27.864;2022-11-20T11:27:54;20.02;;;5.60;;
9852;SDS011;4965;43.238;27.864;2022-11-20T11:30:24;19.52;;;4.93;;
9852;SDS011;4965;43.238;27.864;2022-11-20T11:33:02;25.17;;;4.75;;
9852;SDS011;4965;43.238;27.864;2022-11-20T11:35:31;15.82;;;3.75;;
9852;SDS011;4965;43.238;27.864;2022-11-20T11:38:03;20.98;;;5.00;;
9852;SDS011;4965;43.238;27.864;2022-11-20T11:40:33;21.75;;;5.25;;
9852;SDS011;4965;43.238;27.864;2022-11-20T11:43:03;16.02;;;4.93;;
9852;SDS011;4965;43.238;27.864;2022-11-20T11:45:53;21.45;;;5.10;;
9852;SDS011;4965;43.238;27.864;2022-11-20T11:48:20;23.23;;;5.22;;
9852;SDS011;4965;43.238;27.864;2022-11-20T11:50:49;22.50;;;5.03;;
9852;SDS011;4965;43.238;27.864;2022-11-20T11:53:17;35.72;;;5.57;;
9852;SDS011;4965;43.238;27.864;2022-11-20T11:55:47;18.52;;;4.20;;
9852;SDS011;4965;43.238;27.864;2022-11-20T11:58:21;23.73;;;4.88;;
9852;SDS011;4965;43.238;27.864;2022-11-20T12:01:01;20.60;;;4.88;;
9852;SDS011;4965;43.238;27.864;2022-11-20T12:03:34;26.80;;;5.72;;
9852;SDS011;4965;43.238;27.864;2022-11-20T12:06:05;24.38;;;5.18;;
9852;SDS011;4965;43.238;27.864;2022-11-20T12:08:40;29.05;;;5.40;;
9852;SDS011;4965;43.238;27.864;2022-11-20T12:11:13;26.23;;;5.82;;
9852;SDS011;4965;43.238;27.864;2022-11-20T12:13:48;30.77;;;5.50;;
9852;SDS011;4965;43.238;27.864;2022-11-20T12:16:19;30.90;;;5.55;;
9852;SDS011;4965;43.238;27.864;2022-11-20T12:18:48;26.15;;;5.80;;
9852;SDS011;4965;43.238;27.864;2022-11-20T12:21:23;23.88;;;4.90;;
9852;SDS011;4965;43.238;27.864;2022-11-20T12:24:15;24.08;;;5.38;;
9852;SDS011;4965;43.238;27.864;2022-11-20T12:26:58;24.88;;;5.78;;
9852;SDS011;4965;43.238;27.864;2022-11-20T12:29:41;25.48;;;5.53;;
9852;SDS011;4965;43.238;27.864;2022-11-20T12:32:24;23.85;;;6.43;;
9852;SDS011;4965;43.238;27.864;2022-11-20T12:35:14;32.85;;;5.78;;
9852;SDS011;4965;43.238;27.864;2022-11-20T12:38:00;27.75;;;5.82;;
9852;SDS011;4965;43.238;27.864;2022-11-20T12:40:43;29.17;;;5.43;;
9852;SDS011;4965;43.238;27.864;2022-11-20T12:43:19;29.00;;;7.55;;
9852;SDS011;4965;43.238;27.864;2022-11-20T12:46:10;30.52;;;7.47;;
9852;SDS011;4965;43.238;27.864;2022-11-20T12:48:51;31.58;;;6.18;;
9852;SDS011;4965;43.238;27.864;2022-11-20T12:51:37;23.85;;;5.35;;
9852;SDS011;4965;43.238;27.864;2022-11-20T12:54:28;41.80;;;6.03;;
9852;SDS011;4965;43.238;27.864;2022-11-20T12:57:09;25.42;;;6.40;;
9852;SDS011;4965;43.238;27.864;2022-11-20T12:59:47;31.00;;;8.20;;
9852;SDS011;4965;43.238;27.864;2022-11-20T13:02:30;31.55;;;7.15;;
9852;SDS011;4965;43.238;27.864;2022-11-20T13:05:06;43.30;;;7.13;;
9852;SDS011;4965;43.238;27.864;2022-11-20T13:07:45;27.63;;;8.23;;
9852;SDS011;4965;43.238;27.864;2022-11-20T13:10:18;39.83;;;8.90;;
9852;SDS011;4965;43.238;27.864;2022-11-20T13:12:50;31.52;;;6.80;;
9852;SDS011;4965;43.238;27.864;2022-11-20T13:15:26;28.58;;;6.10;;
9852;SDS011;4965;43.238;27.864;2022-11-20T13:18:00;42.47;;;6.55;;
9852;SDS011;4965;43.238;27.864;2022-11-20T13:20:30;35.53;;;7.47;;
9852;SDS011;4965;43.238;27.864;2022-11-20T13:22:59;26.75;;;6.32;;
9852;SDS011;4965;43.238;27.864;2022-11-20T13:25:28;39.53;;;5.65;;
9852;SDS011;4965;43.238;27.864;2022-11-20T13:27:56;33.40;;;7.90;;
9852;SDS011;4965;43.238;27.864;2022-11-20T13:30:25;24.85;;;7.68;;
9852;SDS011;4965;43.238;27.864;2022-11-20T13:32:53;26.77;;;8.32;;
9852;SDS011;4965;43.238;27.864;2022-11-20T13:35:28;39.97;;;6.55;;
9852;SDS011;4965;43.238;27.864;2022-11-20T13:38:04;33.30;;;6.88;;
9852;SDS011;4965;43.238;27.864;2022-11-20T13:40:35;33.35;;;6.78;;
9852;SDS011;4965;43.238;27.864;2022-11-20T13:43:07;25.38;;;6.35;;
9852;SDS011;4965;43.238;27.864;2022-11-20T13:45:42;32.75;;;6.82;;
9852;SDS011;4965;43.238;27.864;2022-11-20T13:48:20;37.58;;;6.63;;
9852;SDS011;4965;43.238;27.864;2022-11-20T13:50:54;34.40;;;6.85;;
9852;SDS011;4965;43.238;27.864;2022-11-20T13:53:32;38.78;;;6.68;;
9852;SDS011;4965;43.238;27.864;2022-11-20T13:56:17;30.48;;;7.50;;
9852;SDS011;4965;43.238;27.864;2022-11-20T13:58:53;33.83;;;7.03;;
9852;SDS011;4965;43.238;27.864;2022-11-20T14:01:29;42.42;;;7.43;;
9852;SDS011;4965;43.238;27.864;2022-11-20T14:03:57;27.45;;;6.75;;
9852;SDS011;4965;43.238;27.864;2022-11-20T14:06:26;39.03;;;7.80;;
9852;SDS011;4965;43.238;27.864;2022-11-20T14:08:56;32.67;;;7.35;;
9852;SDS011;4965;43.238;27.864;2022-11-20T14:11:27;37.65;;;7.30;;
9852;SDS011;4965;43.238;27.864;2022-11-20T14:13:57;44.90;;;7.53;;
9852;SDS011;4965;43.238;27.864;2022-11-20T14:16:26;32.42;;;7.20;;
9852;SDS011;4965;43.238;27.864;2022-11-20T14:18:55;31.65;;;7.90;;
9852;SDS011;4965;43.238;27.864;2022-11-20T14:21:27;38.92;;;8.45;;
9852;SDS011;4965;43.238;27.864;2022-11-20T14:24:02;37.35;;;7.63;;
9852;SDS011;4965;43.238;27.864;2022-11-20T14:26:31;31.42;;;7.22;;
9852;SDS011;4965;43.238;27.864;2022-11-20T14:28:59;41.85;;;8.82;;
9852;SDS011;4965;43.238;27.864;2022-11-20T14:31:27;40.67;;;8.88;;
9852;SDS011;4965;43.238;27.864;2022-11-20T14:33:54;35.47;;;8.40;;
9852;SDS011;4965;43.238;27.864;2022-11-20T14:36:22;29.30;;;7.95;;
9852;SDS011;4965;43.238;27.864;2022-11-20T14:38:51;38.28;;;7.70;;
9852;SDS011;4965;43.238;27.864;2022-11-20T14:41:19;35.65;;;9.38;;
9852;SDS011;4965;43.238;27.864;2022-11-20T14:43:49;29.77;;;9.48;;
9852;SDS011;4965;43.238;27.864;2022-11-20T14:46:28;40.40;;;8.48;;
9852;SDS011;4965;43.238;27.864;2022-11-20T14:49:30;42.00;;;8.45;;
9852;SDS011;4965;43.238;27.864;2022-11-20T14:55:53;44.13;;;9.57;;
9852;SDS011;4965;43.238;27.864;2022-11-20T14:58:43;45.15;;;10.35;;
9852;SDS011;4965;43.238;27.864;2022-11-20T15:01:12;57.92;;;12.43;;
9852;SDS011;4965;43.238;27.864;2022-11-20T15:03:40;50.38;;;11.82;;
9852;SDS011;4965;43.238;27.864;2022-11-20T15:06:10;43.38;;;10.68;;
9852;SDS011;4965;43.238;27.864;2022-11-20T15:08:38;43.67;;;10.60;;
9852;SDS011;4965;43.238;27.864;2022-11-20T15:11:14;45.95;;;9.70;;
9852;SDS011;4965;43.238;27.864;2022-11-20T15:13:44;47.05;;;8.52;;
9852;SDS011;4965;43.238;27.864;2022-11-20T15:16:13;36.33;;;9.02;;